createdAt,value
2019-01-06T00:05:19.020Z,0.90
2019-01-06T00:11:41.765Z,0.90
2019-01-06T00:17:53.408Z,0.90
2019-01-06T00:23:59.268Z,0.90
2019-01-06T00:30:08.040Z,0.90
2019-01-06T00:36:13.896Z,1.00
2019-01-06T00:42:19.809Z,0.90
2019-01-06T00:48:25.666Z,0.90
2019-01-06T00:54:47.772Z,0.80
2019-01-06T01:01:09.879Z,0.70
2019-01-06T01:07:30.797Z,0.70
2019-01-06T01:13:55.316Z,0.60
2019-01-06T01:20:07.012Z,0.60
2019-01-06T01:26:29.164Z,0.60
2019-01-06T01:32:37.478Z,0.60
2019-01-06T01:38:43.383Z,0.50
2019-01-06T01:44:58.445Z,0.60
2019-01-06T01:51:07.031Z,0.50
2019-01-06T01:57:12.888Z,0.50
2019-01-06T02:03:35.255Z,0.50
2019-01-06T02:09:59.880Z,0.50
2019-01-06T02:16:09.720Z,0.50
2019-01-06T02:22:24.403Z,0.50
2019-01-06T02:28:46.836Z,0.40
2019-01-06T02:34:55.609Z,0.50
2019-01-06T02:41:16.387Z,0.50
2019-01-06T02:47:38.493Z,0.50
2019-01-06T02:53:53.319Z,0.50
2019-01-06T03:00:17.648Z,0.50
2019-01-06T03:06:35.758Z,0.50
2019-01-06T03:12:59.948Z,0.40
2019-01-06T03:19:09.655Z,0.40
2019-01-06T03:25:31.551Z,0.30
2019-01-06T03:31:43.218Z,0.30
2019-01-06T03:38:05.312Z,0.30
2019-01-06T03:44:14.099Z,0.30
2019-01-06T03:50:19.928Z,0.30
2019-01-06T03:56:28.458Z,0.30
2019-01-06T04:02:46.597Z,0.20
2019-01-06T04:09:08.912Z,0.20
2019-01-06T04:15:14.826Z,0.20
2019-01-06T04:21:38.091Z,0.20
2019-01-06T04:28:02.056Z,0.20
2019-01-06T04:34:17.108Z,0.20
2019-01-06T04:40:39.153Z,0.20
2019-01-06T04:46:45.076Z,0.20
2019-01-06T04:53:07.280Z,0.10
2019-01-06T04:59:22.146Z,0.10
2019-01-06T05:05:30.898Z,0.10
2019-01-06T05:11:45.735Z,0.00
2019-01-06T05:18:07.832Z,0.00
2019-01-06T05:24:14.442Z,0.00
2019-01-06T05:30:36.542Z,0.00
2019-01-06T05:36:48.420Z,-0.10
2019-01-06T05:42:57.302Z,-0.10
2019-01-06T05:49:19.373Z,0.00
2019-01-06T05:55:25.336Z,0.00
2019-01-06T06:01:31.227Z,0.00
2019-01-06T06:07:39.741Z,0.00
2019-01-06T06:14:00.764Z,0.00
2019-01-06T06:20:13.660Z,0.00
2019-01-06T06:26:35.497Z,0.00
2019-01-06T06:32:41.383Z,0.00
2019-01-06T06:38:47.288Z,0.00
2019-01-06T06:44:55.840Z,-0.10
2019-01-06T06:51:16.736Z,-0.10
2019-01-06T06:58:15.932Z,-0.10
2019-01-06T07:04:34.023Z,-0.20
2019-01-06T07:10:39.940Z,-0.20
2019-01-06T07:17:20.758Z,-0.20
2019-01-06T07:23:29.711Z,-0.20
2019-01-06T07:29:36.639Z,-0.20
2019-01-06T07:35:42.516Z,-0.10
2019-01-06T07:41:51.068Z,0.00
2019-01-06T07:48:00.065Z,0.00
2019-01-06T07:54:22.092Z,0.00
2019-01-06T08:00:27.959Z,-0.20
2019-01-06T08:06:33.815Z,-0.10
2019-01-06T08:12:54.974Z,-0.10
2019-01-06T08:19:12.968Z,-0.20
2019-01-06T08:25:35.184Z,-0.30
2019-01-06T08:31:58.236Z,-0.40
2019-01-06T08:38:20.527Z,-0.40
2019-01-06T08:44:38.632Z,-0.20
2019-01-06T08:51:00.622Z,-0.10
2019-01-06T08:57:18.532Z,0.00
2019-01-06T09:03:24.522Z,0.10
2019-01-06T09:09:30.504Z,0.10
2019-01-06T09:15:36.328Z,0.00
2019-01-06T09:21:42.389Z,0.00
2019-01-06T09:28:04.778Z,0.00
2019-01-06T09:34:20.876Z,-0.10
2019-01-06T09:40:27.170Z,-0.10
2019-01-06T09:46:33.323Z,-0.10
2019-01-06T09:52:39.188Z,-0.20
2019-01-06T09:58:47.501Z,-0.40
2019-01-06T10:04:56.048Z,-0.60
2019-01-06T10:11:01.901Z,-0.80
2019-01-06T10:17:10.601Z,-0.80
2019-01-06T10:23:22.044Z,-0.80
2019-01-06T10:29:44.404Z,-0.70
2019-01-06T10:36:09.329Z,-0.50
2019-01-06T10:42:21.020Z,-0.50
2019-01-06T10:48:45.302Z,-0.70
2019-01-06T10:55:07.050Z,-0.70
2019-01-06T11:01:29.207Z,-0.70
2019-01-06T11:07:50.431Z,-0.70
2019-01-06T11:14:14.393Z,-0.60
2019-01-06T11:20:26.052Z,-0.50
2019-01-06T11:26:48.537Z,-0.50
2019-01-06T11:33:00.684Z,-0.50
2019-01-06T11:39:20.376Z,-0.50
2019-01-06T11:45:29.107Z,-0.40
2019-01-06T11:51:37.628Z,-0.20
2019-01-06T11:57:55.368Z,-0.30
2019-01-06T12:04:01.244Z,-0.40
2019-01-06T12:10:17.692Z,-0.20
2019-01-06T12:16:32.507Z,-0.40
2019-01-06T12:22:44.448Z,0.00
2019-01-06T12:28:59.382Z,0.00
2019-01-06T12:35:05.228Z,-0.10
2019-01-06T12:41:11.823Z,-0.30
2019-01-06T12:47:23.515Z,-0.40
2019-01-06T12:53:45.784Z,-0.40
2019-01-06T13:00:07.617Z,-0.90
2019-01-06T13:06:13.600Z,-1.30
2019-01-06T13:12:21.908Z,-1.60
2019-01-06T13:18:36.840Z,-1.70
2019-01-06T13:24:42.760Z,-1.70
2019-01-06T13:31:05.188Z,-1.70
2019-01-06T13:37:18.000Z,-1.70
2019-01-06T13:43:24.720Z,-1.70
2019-01-06T13:49:30.623Z,-1.90
2019-01-06T13:55:53.044Z,-1.90
2019-01-06T14:02:13.960Z,-2.00
2019-01-06T14:08:34.864Z,-2.10
2019-01-06T14:14:43.917Z,-2.20
2019-01-06T14:21:06.004Z,-2.20
2019-01-06T14:27:21.052Z,-2.20
2019-01-06T14:33:29.676Z,-2.40
2019-01-06T14:39:35.544Z,-2.40
2019-01-06T14:45:42.225Z,-2.30
2019-01-06T14:51:51.012Z,-2.30
2019-01-06T14:57:56.856Z,-2.30
2019-01-06T15:04:08.444Z,-2.50
2019-01-06T15:10:14.430Z,-2.50
2019-01-06T15:16:29.729Z,-2.60
2019-01-06T15:22:52.240Z,-2.60
2019-01-06T15:28:58.145Z,-2.60
2019-01-06T15:35:09.842Z,-2.60
2019-01-06T15:41:21.844Z,-2.70
2019-01-06T15:47:40.513Z,-2.80
2019-01-06T15:53:49.208Z,-2.90
2019-01-06T16:00:11.619Z,-3.00
2019-01-06T16:06:35.043Z,-3.00
2019-01-06T16:12:57.411Z,-3.10
2019-01-06T16:19:12.419Z,-3.10
2019-01-06T16:25:33.588Z,-3.20
2019-01-06T16:31:54.585Z,-3.10
2019-01-06T16:38:18.566Z,-3.10
2019-01-06T16:44:27.412Z,-3.10
2019-01-06T16:50:34.132Z,-3.10
2019-01-06T16:56:40.104Z,-3.10
2019-01-06T17:02:51.681Z,-3.10
2019-01-06T17:09:12.642Z,-3.10
2019-01-06T17:15:25.650Z,-3.10
2019-01-06T17:21:43.620Z,-3.00
2019-01-06T17:28:04.777Z,-3.00
2019-01-06T17:34:13.740Z,-3.00
2019-01-06T17:40:22.328Z,-3.10
2019-01-06T17:46:44.461Z,-3.10
2019-01-06T17:53:09.236Z,-3.20
2019-01-06T17:59:15.320Z,-3.30
2019-01-06T18:05:24.264Z,-3.40
2019-01-06T18:11:41.920Z,-3.50
2019-01-06T18:17:56.576Z,-3.50
2019-01-06T18:24:14.460Z,-3.50
2019-01-06T18:30:36.824Z,-3.50
2019-01-06T18:37:04.560Z,-3.50
2019-01-06T18:43:27.004Z,-3.50
2019-01-06T18:49:45.645Z,-3.50
2019-01-06T18:56:09.736Z,-3.60
2019-01-06T19:02:18.376Z,-3.50
2019-01-06T19:08:36.248Z,-3.50
2019-01-06T19:15:00.366Z,-3.50
2019-01-06T19:21:09.016Z,-3.80
2019-01-06T19:27:30.237Z,-3.90
2019-01-06T19:33:36.443Z,-4.10
2019-01-06T19:39:42.324Z,-4.20
2019-01-06T19:46:04.081Z,-4.20
2019-01-06T19:52:27.492Z,-4.30
2019-01-06T19:58:39.975Z,-4.30
2019-01-06T20:05:01.850Z,-4.30
2019-01-06T20:11:25.666Z,-4.30
2019-01-06T20:17:37.344Z,-4.40
2019-01-06T20:23:45.708Z,-4.40
2019-01-06T20:30:07.832Z,-4.40
2019-01-06T20:36:19.766Z,-4.40
2019-01-06T20:42:25.643Z,-4.40
2019-01-06T20:48:40.324Z,-4.50
2019-01-06T20:55:02.516Z,-4.50
2019-01-06T21:01:12.376Z,-4.50
2019-01-06T21:07:21.080Z,-4.50
2019-01-06T21:13:29.931Z,-4.50
2019-01-06T21:19:35.940Z,-4.50
2019-01-06T21:25:50.341Z,-4.50
2019-01-06T21:31:56.304Z,-4.50
2019-01-06T21:38:07.876Z,-4.50
2019-01-06T21:44:22.352Z,-4.60
2019-01-06T21:50:33.933Z,-4.60
2019-01-06T21:56:40.381Z,-4.60
2019-01-06T22:03:02.531Z,-4.60
2019-01-06T22:09:14.521Z,-4.60
2019-01-06T22:15:20.473Z,-4.70
2019-01-06T22:21:35.305Z,-4.70
2019-01-06T22:27:44.131Z,-4.80
2019-01-06T22:34:06.750Z,-4.70
2019-01-06T22:40:12.672Z,-4.70
2019-01-06T22:46:27.863Z,-4.70
2019-01-06T22:52:37.131Z,-4.70
2019-01-06T22:58:52.883Z,-4.70
2019-01-06T23:05:11.860Z,-4.70
2019-01-06T23:11:34.248Z,-4.60
2019-01-06T23:17:43.035Z,-4.60
2019-01-06T23:23:55.397Z,-4.70
2019-01-06T23:30:17.757Z,-4.70
2019-01-06T23:36:26.716Z,-4.70
2019-01-06T23:42:48.517Z,-4.70
2019-01-06T23:49:06.499Z,-4.80
2019-01-06T23:55:28.840Z,-4.80
